Aviation Digital Data Service (ADDS)

Output produced by METARs form (0458 UTC 25 April 2014)
found at http://aviationweather.gov/adds/metars/
 
KBPT 250453Z AUTO 22003KT 8SM CLR 21/19 A2992 RMK AO2 SLP132 T02060189 TSNO